Time;durP1;ratioP1;P1;durP2;ratioP2;P2;SDS_P1;SDS_P2;PMS_P1;PMS_P2;Temp;Humidity;BMP_temperature;BMP_pressure;BME280_temperature;BME280_humidity;BME280_pressure;Samples;Min_cycle;Max_cycle;Signal;HPM_P1;HPM_P2
2021/03/17 00:00:15;;;;;;;46.93;29.23;;;;;;;;;;4974869;28;20533;-85
2021/03/17 00:02:40;;;;;;;48.90;29.57;;;;;;;;;;4974951;28;20190;-85
2021/03/17 00:05:06;;;;;;;52.57;32.40;;;;;;;;;;4974987;28;20170;-85
2021/03/17 00:07:32;;;;;;;63.00;40.83;;;;;;;;;;4957476;28;20179;-85
2021/03/17 00:09:57;;;;;;;58.10;38.10;;;;;;;;;;4975503;28;20297;-86
2021/03/17 00:12:22;;;;;;;63.23;35.77;;;;;;;;;;4974805;28;20178;-85
2021/03/17 00:14:48;;;;;;;52.87;31.20;;;;;;;;;;4975036;28;20258;-85
2021/03/17 00:17:13;;;;;;;56.13;31.83;;;;;;;;;;4975167;28;20167;-85
2021/03/17 00:19:38;;;;;;;48.43;29.60;;;;;;;;;;4974870;28;20266;-86
2021/03/17 00:22:04;;;;;;;49.80;29.80;;;;;;;;;;4974829;28;20229;-86
2021/03/17 00:24:30;;;;;;;46.60;29.20;;;;;;;;;;4974560;28;20626;-86
2021/03/17 00:26:55;;;;;;;44.77;29.17;;;;;;;;;;4974503;28;20178;-86
2021/03/17 00:29:20;;;;;;;48.93;29.30;;;;;;;;;;4975417;28;20229;-86
2021/03/17 00:31:45;;;;;;;47.27;28.73;;;;;;;;;;4974693;28;20167;-86
2021/03/17 00:34:11;;;;;;;47.73;28.60;;;;;;;;;;4974958;28;20193;-86
2021/03/17 00:36:36;;;;;;;45.33;28.50;;;;;;;;;;4974345;28;20171;-86
2021/03/17 00:39:02;;;;;;;44.97;26.83;;;;;;;;;;4974665;28;20175;-86
2021/03/17 00:41:27;;;;;;;42.87;26.97;;;;;;;;;;4974926;28;20257;-86
2021/03/17 00:43:52;;;;;;;45.87;28.83;;;;;;;;;;4974872;28;20179;-86
2021/03/17 00:46:18;;;;;;;46.10;29.90;;;;;;;;;;4974312;28;20202;-86
2021/03/17 00:48:43;;;;;;;50.73;32.37;;;;;;;;;;4974316;28;20181;-86
2021/03/17 00:51:08;;;;;;;51.80;31.57;;;;;;;;;;4974805;28;20206;-86
2021/03/17 00:53:33;;;;;;;50.50;32.40;;;;;;;;;;4974269;28;20661;-86
2021/03/17 00:55:59;;;;;;;48.87;30.93;;;;;;;;;;4974605;28;20179;-86
2021/03/17 00:58:26;;;;;;;47.50;28.83;;;;;;;;;;4974625;28;20727;-86
2021/03/17 01:00:51;;;;;;;49.97;29.47;;;;;;;;;;4974545;28;20269;-86
2021/03/17 01:03:16;;;;;;;48.47;28.83;;;;;;;;;;4974447;28;20593;-86
2021/03/17 01:05:42;;;;;;;45.33;28.67;;;;;;;;;;4974452;28;20179;-86
2021/03/17 01:08:07;;;;;;;46.33;28.73;;;;;;;;;;4975107;28;20230;-86
2021/03/17 01:10:35;;;;;;;47.47;29.10;;;;;;;;;;4977982;28;20264;-86
2021/03/17 01:13:01;;;;;;;44.37;27.57;;;;;;;;;;4960748;28;20658;-86
2021/03/17 01:15:32;;;;;;;49.87;28.73;;;;;;;;;;4960918;28;20617;-86
2021/03/17 01:17:58;;;;;;;48.53;29.07;;;;;;;;;;4960835;28;20175;-86
2021/03/17 01:20:24;;;;;;;45.47;28.47;;;;;;;;;;4960483;28;20181;-86
2021/03/17 01:22:50;;;;;;;43.03;29.07;;;;;;;;;;4977770;28;20206;-86
2021/03/17 01:25:17;;;;;;;44.53;28.17;;;;;;;;;;4977698;28;20178;-86
2021/03/17 01:27:43;;;;;;;48.43;30.47;;;;;;;;;;4977652;28;20182;-86
2021/03/17 01:30:10;;;;;;;53.30;33.87;;;;;;;;;;4977605;28;20724;-85
2021/03/17 01:32:35;;;;;;;47.80;30.00;;;;;;;;;;4977777;28;20211;-86
2021/03/17 01:35:00;;;;;;;46.93;28.63;;;;;;;;;;4960693;28;20584;-85
2021/03/17 01:37:26;;;;;;;49.77;28.83;;;;;;;;;;4977135;28;20213;-86
2021/03/17 01:39:55;;;;;;;50.00;28.33;;;;;;;;;;4977755;28;20183;-86
2021/03/17 01:42:22;;;;;;;44.87;26.73;;;;;;;;;;4977755;28;20194;-86
2021/03/17 01:44:59;;;;;;;45.67;28.33;;;;;;;;;;4977639;28;20190;-86
2021/03/17 01:47:25;;;;;;;50.67;26.97;;;;;;;;;;4977958;28;20173;-86
2021/03/17 01:49:56;;;;;;;44.93;27.13;;;;;;;;;;4976872;28;20202;-87
2021/03/17 01:52:24;;;;;;;42.87;26.20;;;;;;;;;;4978054;28;20179;-87
2021/03/17 01:54:51;;;;;;;41.47;25.37;;;;;;;;;;4976684;28;20262;-85
2021/03/17 01:57:17;;;;;;;43.00;27.07;;;;;;;;;;4977159;28;20214;-85
2021/03/17 01:59:45;;;;;;;47.10;26.70;;;;;;;;;;4977039;28;20221;-85
2021/03/17 02:02:24;;;;;;;;;;;;;;;;;;;;;
2021/03/17 02:04:50;;;;;;;38.57;24.07;;;;;;;;;;4977623;28;20519;-85
2021/03/17 02:07:16;;;;;;;42.17;24.70;;;;;;;;;;4977338;28;20262;-86
2021/03/17 02:09:41;;;;;;;39.33;23.83;;;;;;;;;;4977085;28;20320;-86
2021/03/17 02:12:30;;;;;;;40.73;26.20;;;;;;;;;;4976693;28;20181;-85
2021/03/17 02:15:21;;;;;;;47.50;26.53;;;;;;;;;;4929604;28;20298;-85
2021/03/17 02:17:49;;;;;;;39.77;26.87;;;;;;;;;;4939643;28;20183;-85
2021/03/17 02:20:23;;;;;;;40.70;24.80;;;;;;;;;;4976057;28;20199;-85
2021/03/17 02:23:10;;;;;;;37.37;23.40;;;;;;;;;;4976631;28;20178;-85
2021/03/17 02:25:56;;;;;;;39.53;22.77;;;;;;;;;;4976620;28;20179;-86
2021/03/17 02:28:40;;;;;;;38.10;22.50;;;;;;;;;;4977471;28;20502;-85
2021/03/17 02:31:29;;;;;;;40.00;21.97;;;;;;;;;;4976233;28;20202;-85
2021/03/17 02:33:57;;;;;;;35.40;21.97;;;;;;;;;;4976122;28;20167;-86
2021/03/17 02:36:28;;;;;;;35.63;22.20;;;;;;;;;;4976706;28;20218;-85
2021/03/17 02:39:01;;;;;;;35.07;21.93;;;;;;;;;;4976683;28;20174;-85
2021/03/17 02:41:32;;;;;;;37.13;22.37;;;;;;;;;;4976549;28;20178;-86
2021/03/17 02:44:00;;;;;;;39.60;23.17;;;;;;;;;;4976555;28;20162;-85
2021/03/17 02:46:27;;;;;;;33.60;21.37;;;;;;;;;;4976148;28;20178;-85
2021/03/17 02:48:58;;;;;;;35.93;21.20;;;;;;;;;;4976673;28;20193;-85
2021/03/17 02:51:27;;;;;;;38.33;22.43;;;;;;;;;;4976167;28;20241;-85
2021/03/17 02:53:53;;;;;;;35.60;21.83;;;;;;;;;;4976276;28;20237;-85
2021/03/17 02:56:19;;;;;;;34.83;22.57;;;;;;;;;;4975686;28;20178;-85
2021/03/17 02:58:45;;;;;;;35.90;23.43;;;;;;;;;;4976393;28;20494;-85
2021/03/17 03:01:12;;;;;;;36.07;22.17;;;;;;;;;;4976029;28;20210;-86
2021/03/17 03:03:39;;;;;;;39.37;22.90;;;;;;;;;;4975722;28;20175;-86
2021/03/17 03:06:05;;;;;;;35.57;22.50;;;;;;;;;;4976018;28;20170;-85
2021/03/17 03:08:32;;;;;;;35.90;22.33;;;;;;;;;;4975104;28;20651;-85
2021/03/17 03:10:58;;;;;;;36.60;22.37;;;;;;;;;;4975730;28;20206;-86
2021/03/17 03:13:27;;;;;;;40.33;23.23;;;;;;;;;;4975740;28;20171;-86
2021/03/17 03:15:53;;;;;;;35.33;21.67;;;;;;;;;;4975613;28;20238;-87
2021/03/17 03:18:20;;;;;;;36.80;22.70;;;;;;;;;;4976385;28;20514;-86
2021/03/17 03:20:45;;;;;;;39.80;24.10;;;;;;;;;;4975728;28;20190;-88
2021/03/17 03:23:11;;;;;;;34.50;22.57;;;;;;;;;;4975496;28;20260;-88
2021/03/17 03:25:36;;;;;;;35.23;21.80;;;;;;;;;;4958326;28;20578;-88
2021/03/17 03:28:11;;;;;;;37.77;22.03;;;;;;;;;;4975181;28;20693;-87
2021/03/17 03:30:37;;;;;;;39.83;23.33;;;;;;;;;;4974335;28;20598;-85
2021/03/17 03:33:03;;;;;;;38.30;22.33;;;;;;;;;;4958254;28;20187;-85
2021/03/17 03:35:28;;;;;;;32.70;21.27;;;;;;;;;;4956431;29;20174;-85
2021/03/17 03:37:53;;;;;;;36.33;22.13;;;;;;;;;;4955972;29;20167;-85
2021/03/17 03:40:20;;;;;;;36.80;22.73;;;;;;;;;;4955966;28;20233;-85
2021/03/17 03:42:45;;;;;;;38.63;23.40;;;;;;;;;;4956025;29;20177;-85
2021/03/17 03:45:13;;;;;;;38.10;23.93;;;;;;;;;;4955643;29;20257;-85
2021/03/17 03:47:38;;;;;;;37.27;22.43;;;;;;;;;;4955853;28;20171;-85
2021/03/17 03:50:05;;;;;;;38.57;22.43;;;;;;;;;;4955496;29;20205;-85
2021/03/17 03:52:35;;;;;;;38.73;23.47;;;;;;;;;;4955664;28;20199;-85
2021/03/17 03:55:08;;;;;;;33.53;22.67;;;;;;;;;;4955520;29;20183;-85
2021/03/17 03:57:46;;;;;;;38.20;22.07;;;;;;;;;;4955512;28;20583;-85
2021/03/17 04:00:13;;;;;;;37.10;22.70;;;;;;;;;;4956572;28;20682;-85
2021/03/17 04:02:46;;;;;;;39.30;23.57;;;;;;;;;;4955379;29;20171;-85
2021/03/17 04:05:15;;;;;;;40.53;22.77;;;;;;;;;;4956032;28;20167;-85
2021/03/17 04:07:42;;;;;;;45.23;24.83;;;;;;;;;;4955511;28;20229;-85
2021/03/17 04:10:09;;;;;;;40.10;23.73;;;;;;;;;;4955406;29;20211;-86
2021/03/17 04:12:36;;;;;;;41.80;24.40;;;;;;;;;;4956132;28;20234;-87
2021/03/17 04:15:02;;;;;;;38.63;23.33;;;;;;;;;;4956084;29;20179;-85
2021/03/17 04:17:32;;;;;;;38.43;23.60;;;;;;;;;;4955514;28;20175;-85
2021/03/17 04:20:11;;;;;;;43.23;24.13;;;;;;;;;;4954751;28;20211;-85
2021/03/17 04:22:37;;;;;;;36.17;22.37;;;;;;;;;;4955986;28;20185;-86
2021/03/17 04:25:05;;;;;;;38.23;23.30;;;;;;;;;;4955187;28;20182;-85
2021/03/17 04:27:31;;;;;;;41.73;24.50;;;;;;;;;;4955170;29;20262;-86
2021/03/17 04:29:58;;;;;;;39.10;23.10;;;;;;;;;;4955397;28;20623;-86
2021/03/17 04:32:25;;;;;;;40.23;22.30;;;;;;;;;;4955503;28;20210;-85
2021/03/17 04:34:51;;;;;;;40.37;22.90;;;;;;;;;;4955401;28;20171;-85
2021/03/17 04:37:18;;;;;;;37.37;21.73;;;;;;;;;;4955393;29;20223;-86
2021/03/17 04:39:43;;;;;;;42.00;23.60;;;;;;;;;;4955631;28;20211;-86
2021/03/17 04:42:09;;;;;;;39.97;22.10;;;;;;;;;;4939531;29;20237;-86
2021/03/17 04:44:36;;;;;;;39.23;22.97;;;;;;;;;;4958899;28;20182;-86
2021/03/17 04:47:03;;;;;;;40.27;22.97;;;;;;;;;;4958866;28;20199;-85
2021/03/17 04:49:29;;;;;;;41.17;23.10;;;;;;;;;;4958952;28;20186;-86
2021/03/17 04:51:55;;;;;;;39.77;25.13;;;;;;;;;;4958995;28;20234;-87
2021/03/17 04:54:20;;;;;;;45.47;26.27;;;;;;;;;;4959211;28;20175;-87
2021/03/17 04:56:46;;;;;;;48.77;27.63;;;;;;;;;;4959221;28;20178;-85
2021/03/17 04:59:16;;;;;;;45.87;24.97;;;;;;;;;;4958938;28;20175;-85
2021/03/17 05:01:42;;;;;;;39.80;23.00;;;;;;;;;;4958870;28;20175;-86
2021/03/17 05:04:08;;;;;;;36.37;19.63;;;;;;;;;;4958841;29;20550;-86
2021/03/17 05:06:35;;;;;;;36.57;20.37;;;;;;;;;;4958963;28;20182;-86
2021/03/17 05:09:02;;;;;;;36.43;21.30;;;;;;;;;;4958246;29;20326;-86
2021/03/17 05:11:28;;;;;;;35.10;21.07;;;;;;;;;;4958253;29;20203;-86
2021/03/17 05:13:53;;;;;;;36.83;20.27;;;;;;;;;;4958629;29;20175;-87
2021/03/17 05:16:19;;;;;;;35.73;20.53;;;;;;;;;;4958257;28;20650;-86
2021/03/17 05:18:46;;;;;;;35.63;20.10;;;;;;;;;;4958454;28;20241;-87
2021/03/17 05:21:11;;;;;;;34.27;20.57;;;;;;;;;;4958816;29;20175;-86
2021/03/17 05:23:39;;;;;;;34.50;20.00;;;;;;;;;;4941856;29;20179;-87
2021/03/17 05:26:05;;;;;;;29.80;18.80;;;;;;;;;;4958557;29;20218;-86
2021/03/17 05:28:30;;;;;;;34.23;19.90;;;;;;;;;;4958419;29;20179;-86
2021/03/17 05:30:56;;;;;;;41.43;22.57;;;;;;;;;;4958007;29;20562;-86
2021/03/17 05:33:24;;;;;;;35.03;21.13;;;;;;;;;;4958818;28;20202;-86
2021/03/17 05:35:49;;;;;;;41.53;23.80;;;;;;;;;;4958298;28;20199;-86
2021/03/17 05:38:15;;;;;;;45.53;25.57;;;;;;;;;;4957845;29;20210;-86
2021/03/17 05:40:40;;;;;;;38.00;22.07;;;;;;;;;;4958204;29;20175;-87
2021/03/17 05:43:06;;;;;;;41.93;25.77;;;;;;;;;;4958125;29;20307;-87
2021/03/17 05:45:32;;;;;;;39.60;25.47;;;;;;;;;;4958327;29;20238;-87
2021/03/17 05:47:58;;;;;;;47.10;25.77;;;;;;;;;;4958037;29;20655;-87
2021/03/17 05:50:23;;;;;;;40.23;24.93;;;;;;;;;;4957628;28;20254;-87
2021/03/17 05:52:49;;;;;;;35.93;22.33;;;;;;;;;;4958184;28;20525;-86
2021/03/17 05:55:15;;;;;;;42.47;25.70;;;;;;;;;;4957283;28;20175;-86
2021/03/17 05:57:40;;;;;;;42.40;21.40;;;;;;;;;;4958089;28;20183;-87
2021/03/17 06:00:07;;;;;;;39.17;22.40;;;;;;;;;;4957867;28;20618;-86
2021/03/17 06:02:33;;;;;;;33.43;19.80;;;;;;;;;;4958047;28;20534;-86
2021/03/17 06:05:00;;;;;;;38.83;21.90;;;;;;;;;;4957667;29;20176;-86
2021/03/17 06:07:25;;;;;;;38.30;21.90;;;;;;;;;;4957794;29;20177;-86
2021/03/17 06:09:55;;;;;;;36.43;22.53;;;;;;;;;;4958031;29;20231;-86
2021/03/17 06:12:21;;;;;;;40.03;21.60;;;;;;;;;;4957743;29;20230;-86
2021/03/17 06:14:48;;;;;;;38.27;21.33;;;;;;;;;;4958047;28;20171;-86
2021/03/17 06:17:16;;;;;;;42.50;22.33;;;;;;;;;;4957638;28;20178;-86
2021/03/17 06:19:43;;;;;;;37.80;21.97;;;;;;;;;;4957660;28;20207;-86
2021/03/17 06:22:09;;;;;;;35.83;19.87;;;;;;;;;;4957384;29;20198;-85
2021/03/17 06:24:34;;;;;;;39.13;20.93;;;;;;;;;;4957552;28;20194;-85
2021/03/17 06:26:59;;;;;;;34.43;20.20;;;;;;;;;;4957157;29;20194;-86
2021/03/17 06:29:25;;;;;;;40.67;21.20;;;;;;;;;;4957131;28;20637;-85
2021/03/17 06:31:51;;;;;;;39.83;22.27;;;;;;;;;;4957167;28;20177;-86
2021/03/17 06:34:16;;;;;;;37.17;19.73;;;;;;;;;;4957086;28;20186;-86
2021/03/17 06:36:48;;;;;;;39.77;22.17;;;;;;;;;;4957397;29;20233;-85
2021/03/17 06:39:13;;;;;;;37.13;22.27;;;;;;;;;;4957255;28;20181;-85
2021/03/17 06:41:44;;;;;;;35.77;20.93;;;;;;;;;;4957166;29;20198;-85
2021/03/17 06:44:10;;;;;;;32.27;19.37;;;;;;;;;;4956844;28;20224;-87
2021/03/17 06:46:35;;;;;;;37.70;19.37;;;;;;;;;;4957006;28;20558;-85
2021/03/17 06:49:00;;;;;;;30.13;17.13;;;;;;;;;;4957267;28;20171;-85
2021/03/17 06:51:28;;;;;;;27.07;16.63;;;;;;;;;;4939625;29;20278;-85
2021/03/17 06:53:55;;;;;;;24.63;16.27;;;;;;;;;;4956874;28;20183;-85
2021/03/17 06:56:22;;;;;;;24.37;15.30;;;;;;;;;;4956366;29;20701;-86
2021/03/17 06:58:49;;;;;;;25.73;16.27;;;;;;;;;;4956606;28;20179;-85
2021/03/17 07:01:45;;;;;;;28.93;18.07;;;;;;;;;;4956704;28;20184;-86
2021/03/17 07:04:16;;;;;;;33.07;21.17;;;;;;;;;;4936744;29;20646;-86
2021/03/17 07:06:43;;;;;;;34.23;23.60;;;;;;;;;;4955953;28;20171;-86
2021/03/17 07:09:25;;;;;;;50.30;37.47;;;;;;;;;;4956443;28;20234;-86
2021/03/17 07:11:52;;;;;;;43.80;28.47;;;;;;;;;;4956147;28;20176;-86
2021/03/17 07:14:26;;;;;;;39.63;26.63;;;;;;;;;;4956834;28;20171;-86
2021/03/17 07:16:52;;;;;;;41.27;25.23;;;;;;;;;;4956290;28;20171;-85
2021/03/17 07:19:30;;;;;;;37.60;23.90;;;;;;;;;;4956570;28;20614;-85
2021/03/17 07:22:05;;;;;;;45.07;26.83;;;;;;;;;;4956649;29;20178;-86
2021/03/17 07:24:30;;;;;;;36.67;21.73;;;;;;;;;;4956985;29;20214;-86
2021/03/17 07:27:10;;;;;;;33.63;20.87;;;;;;;;;;4956144;28;20526;-86
2021/03/17 07:29:35;;;;;;;35.83;21.43;;;;;;;;;;4939598;29;20170;-86
2021/03/17 07:32:01;;;;;;;34.33;21.97;;;;;;;;;;4956411;29;20741;-85
2021/03/17 07:34:27;;;;;;;34.80;20.97;;;;;;;;;;4956034;28;20176;-85
2021/03/17 07:36:56;;;;;;;35.50;20.07;;;;;;;;;;4956234;29;20194;-86
2021/03/17 07:39:32;;;;;;;39.20;20.23;;;;;;;;;;4956388;28;20204;-86
2021/03/17 07:41:59;;;;;;;35.63;21.07;;;;;;;;;;4956168;29;20182;-85
2021/03/17 07:44:25;;;;;;;34.23;20.93;;;;;;;;;;4956176;29;20622;-85
2021/03/17 07:46:52;;;;;;;38.87;22.77;;;;;;;;;;4956086;28;20223;-85
2021/03/17 07:49:17;;;;;;;43.73;26.47;;;;;;;;;;4955713;29;20170;-85
2021/03/17 07:51:47;;;;;;;40.17;23.07;;;;;;;;;;4955717;28;20195;-85
2021/03/17 07:54:20;;;;;;;35.63;21.23;;;;;;;;;;4956289;29;20186;-85
2021/03/17 07:56:48;;;;;;;38.70;20.90;;;;;;;;;;4955951;29;20199;-85
2021/03/17 07:59:13;;;;;;;32.17;19.47;;;;;;;;;;4956495;29;20226;-85
2021/03/17 08:01:39;;;;;;;31.40;19.47;;;;;;;;;;4955570;28;20171;-85
2021/03/17 08:04:05;;;;;;;30.93;19.63;;;;;;;;;;4955857;28;20171;-85
2021/03/17 08:06:30;;;;;;;33.43;19.20;;;;;;;;;;4956409;29;20183;-85
2021/03/17 08:08:57;;;;;;;31.53;17.97;;;;;;;;;;4955453;28;20728;-85
2021/03/17 08:11:23;;;;;;;32.10;19.23;;;;;;;;;;4955453;29;20214;-86
2021/03/17 08:13:50;;;;;;;36.47;23.57;;;;;;;;;;4955827;29;20183;-86
2021/03/17 08:16:19;;;;;;;45.17;20.90;;;;;;;;;;4955794;28;20250;-86
2021/03/17 08:18:45;;;;;;;24.23;14.77;;;;;;;;;;4959575;29;20279;-85
2021/03/17 08:21:11;;;;;;;27.67;17.10;;;;;;;;;;4959495;29;20646;-85
2021/03/17 08:23:37;;;;;;;27.53;17.70;;;;;;;;;;4959672;29;20167;-85
2021/03/17 08:26:02;;;;;;;25.77;15.37;;;;;;;;;;4959505;28;20582;-86
2021/03/17 08:28:29;;;;;;;27.80;16.13;;;;;;;;;;4959318;29;20202;-85
2021/03/17 08:30:55;;;;;;;32.63;19.00;;;;;;;;;;4959760;29;20645;-85
2021/03/17 08:33:40;;;;;;;26.00;15.70;;;;;;;;;;4959521;29;20180;-85
2021/03/17 08:36:07;;;;;;;23.80;14.80;;;;;;;;;;4959529;28;20547;-85
2021/03/17 08:38:44;;;;;;;24.63;16.77;;;;;;;;;;4959393;28;20513;-85
2021/03/17 08:41:09;;;;;;;35.27;19.07;;;;;;;;;;4959342;28;20175;-86
2021/03/17 08:43:35;;;;;;;26.23;16.13;;;;;;;;;;4942786;29;20186;-85
2021/03/17 08:46:06;;;;;;;27.53;17.27;;;;;;;;;;4959265;28;20230;-86
2021/03/17 08:48:50;;;;;;;26.33;16.60;;;;;;;;;;4959230;28;20171;-85
2021/03/17 08:51:15;;;;;;;30.80;18.20;;;;;;;;;;4958737;29;20666;-85
2021/03/17 08:53:40;;;;;;;29.23;16.77;;;;;;;;;;4958993;29;20182;-85
2021/03/17 08:56:06;;;;;;;26.13;17.60;;;;;;;;;;4942488;29;20242;-85
2021/03/17 08:58:31;;;;;;;26.83;16.37;;;;;;;;;;4959589;28;20175;-85
2021/03/17 09:01:00;;;;;;;24.33;16.10;;;;;;;;;;4958765;29;20186;-85
2021/03/17 09:03:32;;;;;;;32.03;18.67;;;;;;;;;;4941672;29;20175;-86
2021/03/17 09:06:06;;;;;;;29.90;18.93;;;;;;;;;;4959140;29;20175;-86
2021/03/17 09:08:46;;;;;;;29.80;18.50;;;;;;;;;;4958681;28;20227;-87
2021/03/17 09:11:31;;;;;;;31.17;18.93;;;;;;;;;;4959043;28;20583;-87
2021/03/17 09:14:01;;;;;;;31.03;19.83;;;;;;;;;;4970275;28;20234;-87
2021/03/17 09:16:27;;;;;;;39.17;20.80;;;;;;;;;;4978412;28;20174;-86
2021/03/17 09:19:11;;;;;;;35.63;25.20;;;;;;;;;;4978018;28;20609;-86
2021/03/17 09:21:38;;;;;;;33.60;19.80;;;;;;;;;;4974807;28;20187;-86
2021/03/17 09:24:03;;;;;;;30.67;20.30;;;;;;;;;;4959258;28;20241;-86
2021/03/17 09:26:29;;;;;;;30.50;19.77;;;;;;;;;;4978109;28;20617;-85
2021/03/17 09:28:55;;;;;;;34.73;21.63;;;;;;;;;;4976803;28;20604;-85
2021/03/17 09:31:23;;;;;;;36.87;21.37;;;;;;;;;;4977410;28;20206;-85
2021/03/17 09:33:49;;;;;;;40.47;22.93;;;;;;;;;;4978282;28;20183;-85
2021/03/17 09:36:18;;;;;;;62.47;30.40;;;;;;;;;;4977724;28;20224;-84
2021/03/17 09:38:47;;;;;;;28.80;19.33;;;;;;;;;;4977997;28;20261;-85
2021/03/17 09:41:28;;;;;;;38.97;20.20;;;;;;;;;;4978099;28;20555;-85
2021/03/17 09:43:53;;;;;;;29.10;16.17;;;;;;;;;;4977562;28;20175;-84
2021/03/17 09:46:20;;;;;;;23.87;14.27;;;;;;;;;;4977519;28;20170;-84
2021/03/17 09:48:46;;;;;;;21.57;13.40;;;;;;;;;;4960241;28;20189;-84
2021/03/17 09:51:19;;;;;;;20.33;14.03;;;;;;;;;;4977398;28;20194;-84
2021/03/17 09:53:45;;;;;;;22.77;14.90;;;;;;;;;;4978078;28;20183;-84
2021/03/17 09:56:10;;;;;;;36.07;19.40;;;;;;;;;;4977535;28;20689;-85
2021/03/17 09:58:36;;;;;;;33.83;19.73;;;;;;;;;;4978181;28;20191;-86
2021/03/17 10:01:14;;;;;;;35.10;18.40;;;;;;;;;;4975731;28;20577;-84
2021/03/17 10:03:43;;;;;;;26.77;15.67;;;;;;;;;;4976268;28;20174;-84
2021/03/17 10:06:08;;;;;;;23.20;15.20;;;;;;;;;;4974684;28;20179;-84
2021/03/17 10:08:33;;;;;;;27.30;16.37;;;;;;;;;;4976573;28;20234;-84
2021/03/17 10:10:59;;;;;;;36.90;18.77;;;;;;;;;;4976580;28;20238;-84
2021/03/17 10:13:25;;;;;;;32.00;18.10;;;;;;;;;;4976670;28;20213;-84
2021/03/17 10:15:51;;;;;;;32.70;19.63;;;;;;;;;;4977168;28;20178;-84
2021/03/17 10:18:16;;;;;;;34.73;20.10;;;;;;;;;;4977041;28;20578;-84
2021/03/17 10:20:41;;;;;;;25.13;17.10;;;;;;;;;;4976524;28;20178;-84
2021/03/17 10:23:07;;;;;;;29.47;18.83;;;;;;;;;;4976876;28;20617;-83
2021/03/17 10:25:32;;;;;;;26.53;16.57;;;;;;;;;;4977054;28;20189;-84
2021/03/17 10:27:59;;;;;;;36.67;18.17;;;;;;;;;;4964640;28;20210;-84
2021/03/17 10:30:26;;;;;;;29.37;17.23;;;;;;;;;;4975942;28;20728;-83
2021/03/17 10:32:52;;;;;;;31.97;18.33;;;;;;;;;;4976643;28;20174;-83
2021/03/17 10:35:18;;;;;;;27.70;16.93;;;;;;;;;;4976792;28;20186;-84
2021/03/17 10:37:45;;;;;;;35.00;19.50;;;;;;;;;;4976464;28;20202;-84
2021/03/17 10:40:14;;;;;;;29.50;18.03;;;;;;;;;;4976182;28;20178;-84
2021/03/17 10:42:47;;;;;;;27.00;17.73;;;;;;;;;;4975468;28;20180;-83
2021/03/17 10:45:14;;;;;;;33.77;20.00;;;;;;;;;;4975117;28;20174;-84
2021/03/17 10:47:40;;;;;;;43.80;22.77;;;;;;;;;;4974956;28;20182;-84
2021/03/17 10:50:07;;;;;;;51.53;24.77;;;;;;;;;;4974720;28;20202;-84
2021/03/17 10:52:43;;;;;;;39.00;20.13;;;;;;;;;;4974919;28;20182;-83
2021/03/17 10:55:19;;;;;;;29.47;16.73;;;;;;;;;;4974851;28;20262;-84
2021/03/17 10:57:44;;;;;;;30.77;15.80;;;;;;;;;;4975429;28;20158;-84
2021/03/17 11:00:14;;;;;;;27.90;16.10;;;;;;;;;;4975883;28;20700;-83
2021/03/17 11:02:40;;;;;;;31.70;15.93;;;;;;;;;;4975873;28;20174;-83
2021/03/17 11:05:07;;;;;;;29.93;19.30;;;;;;;;;;4976046;28;20178;-83
2021/03/17 11:07:51;;;;;;;39.13;25.57;;;;;;;;;;4975990;28;20234;-84
2021/03/17 11:10:46;;;;;;;26.23;15.03;;;;;;;;;;4975774;28;20214;-83
2021/03/17 11:13:12;;;;;;;25.43;15.00;;;;;;;;;;4937485;28;20217;-84
2021/03/17 11:15:47;;;;;;;25.83;14.40;;;;;;;;;;4975441;28;20194;-83
2021/03/17 11:18:28;;;;;;;20.60;13.00;;;;;;;;;;4958264;28;20656;-84
2021/03/17 11:20:54;;;;;;;28.53;16.37;;;;;;;;;;4974076;28;20186;-84
2021/03/17 11:23:26;;;;;;;19.10;12.97;;;;;;;;;;4975615;28;20170;-84
2021/03/17 11:25:53;;;;;;;23.33;13.77;;;;;;;;;;4975174;28;20198;-84
2021/03/17 11:28:20;;;;;;;23.67;14.00;;;;;;;;;;4967238;28;20174;-84
2021/03/17 11:30:46;;;;;;;18.60;12.27;;;;;;;;;;4978530;28;20226;-84
2021/03/17 11:33:12;;;;;;;23.20;13.57;;;;;;;;;;4964096;28;20183;-84
2021/03/17 11:35:37;;;;;;;19.30;12.77;;;;;;;;;;4955935;29;20623;-84
2021/03/17 11:38:02;;;;;;;20.60;13.37;;;;;;;;;;4956583;28;20190;-84
2021/03/17 11:40:28;;;;;;;19.60;13.67;;;;;;;;;;4956546;28;20183;-85
2021/03/17 11:43:01;;;;;;;21.27;12.50;;;;;;;;;;4974920;28;20185;-85
2021/03/17 11:45:27;;;;;;;27.67;15.37;;;;;;;;;;4974885;28;20186;-84
2021/03/17 11:47:52;;;;;;;23.20;15.17;;;;;;;;;;4974948;28;20194;-84
2021/03/17 11:50:17;;;;;;;21.87;14.10;;;;;;;;;;4974743;28;20202;-84
2021/03/17 11:52:43;;;;;;;20.37;13.73;;;;;;;;;;4975011;28;20618;-84
2021/03/17 11:55:08;;;;;;;34.10;21.83;;;;;;;;;;4975490;28;20170;-84
2021/03/17 11:57:33;;;;;;;26.33;16.60;;;;;;;;;;4957809;28;20186;-84
2021/03/17 11:59:59;;;;;;;28.77;16.37;;;;;;;;;;4957709;28;20265;-83
2021/03/17 12:02:24;;;;;;;31.07;17.07;;;;;;;;;;4974782;28;20179;-84
2021/03/17 12:04:49;;;;;;;21.00;13.67;;;;;;;;;;4957695;28;20182;-84
2021/03/17 12:07:15;;;;;;;24.87;15.17;;;;;;;;;;4974935;28;20186;-84
2021/03/17 12:09:40;;;;;;;23.70;13.97;;;;;;;;;;4957179;28;20586;-84
2021/03/17 12:12:05;;;;;;;27.87;17.40;;;;;;;;;;4977574;28;20603;-83
2021/03/17 12:14:31;;;;;;;22.40;14.77;;;;;;;;;;4957357;28;20186;-83
2021/03/17 12:16:56;;;;;;;28.90;17.00;;;;;;;;;;4957319;28;20261;-83
2021/03/17 12:19:21;;;;;;;21.87;14.67;;;;;;;;;;4975012;28;20177;-83
2021/03/17 12:21:47;;;;;;;21.57;14.00;;;;;;;;;;4974667;28;20518;-84
2021/03/17 12:24:12;;;;;;;26.73;15.90;;;;;;;;;;4974598;28;20185;-83
2021/03/17 12:26:37;;;;;;;29.93;19.47;;;;;;;;;;4957292;28;20175;-84
2021/03/17 12:29:03;;;;;;;34.70;20.10;;;;;;;;;;4974973;28;20174;-84
2021/03/17 12:31:28;;;;;;;36.77;21.50;;;;;;;;;;4973347;28;20202;-84
2021/03/17 12:33:53;;;;;;;37.20;24.37;;;;;;;;;;4974240;28;20185;-84
2021/03/17 12:36:19;;;;;;;96.27;53.70;;;;;;;;;;4957220;28;20209;-84
2021/03/17 12:38:44;;;;;;;105.97;42.87;;;;;;;;;;4957048;28;20179;-85
2021/03/17 12:41:09;;;;;;;25.63;17.07;;;;;;;;;;4974463;28;20266;-85
2021/03/17 12:43:35;;;;;;;17.47;13.40;;;;;;;;;;4974637;28;20182;-84
2021/03/17 12:46:00;;;;;;;19.87;13.90;;;;;;;;;;4974606;28;20171;-85
2021/03/17 12:48:25;;;;;;;20.70;14.13;;;;;;;;;;4974765;28;20596;-84
2021/03/17 12:50:51;;;;;;;25.13;15.23;;;;;;;;;;4974688;28;20265;-84
2021/03/17 12:53:16;;;;;;;19.20;14.90;;;;;;;;;;4974398;28;20218;-85
2021/03/17 12:55:41;;;;;;;20.60;15.00;;;;;;;;;;4974890;28;20185;-84
2021/03/17 12:58:07;;;;;;;19.93;15.37;;;;;;;;;;4974303;28;20177;-84
2021/03/17 13:00:32;;;;;;;20.77;15.33;;;;;;;;;;4974599;28;20643;-84
2021/03/17 13:02:57;;;;;;;18.27;13.07;;;;;;;;;;4958147;28;20605;-84
2021/03/17 13:05:23;;;;;;;24.40;16.80;;;;;;;;;;4977938;28;20226;-84
2021/03/17 13:07:51;;;;;;;22.47;14.37;;;;;;;;;;4977946;28;20209;-84
2021/03/17 13:10:17;;;;;;;20.93;14.13;;;;;;;;;;4977839;28;20210;-84
2021/03/17 13:12:43;;;;;;;20.53;14.70;;;;;;;;;;4977579;28;20178;-84
2021/03/17 13:15:09;;;;;;;20.37;14.70;;;;;;;;;;4960475;28;20640;-84
2021/03/17 13:17:35;;;;;;;24.47;15.07;;;;;;;;;;4978261;28;20209;-84
2021/03/17 13:20:01;;;;;;;31.13;18.17;;;;;;;;;;4975982;28;20222;-84
2021/03/17 13:22:26;;;;;;;17.93;13.37;;;;;;;;;;4977334;28;20182;-84
2021/03/17 13:24:52;;;;;;;16.93;13.57;;;;;;;;;;4960602;28;20171;-84
2021/03/17 13:27:17;;;;;;;17.50;13.60;;;;;;;;;;4977494;28;20202;-85
2021/03/17 13:29:42;;;;;;;16.73;14.27;;;;;;;;;;4977473;28;20180;-84
2021/03/17 13:32:07;;;;;;;24.33;17.57;;;;;;;;;;4977541;28;20175;-83
2021/03/17 13:34:33;;;;;;;20.97;15.10;;;;;;;;;;4960378;28;20186;-83
2021/03/17 13:36:58;;;;;;;22.93;17.83;;;;;;;;;;4960117;28;20717;-83
2021/03/17 13:39:23;;;;;;;22.70;16.57;;;;;;;;;;4960182;28;20178;-83
2021/03/17 13:41:49;;;;;;;27.67;20.50;;;;;;;;;;4977383;28;20641;-83
2021/03/17 13:44:14;;;;;;;21.27;15.17;;;;;;;;;;4977447;28;20177;-83
2021/03/17 13:46:40;;;;;;;21.63;15.43;;;;;;;;;;4960151;28;20213;-83
2021/03/17 13:49:05;;;;;;;16.47;12.27;;;;;;;;;;4977684;28;20606;-83
2021/03/17 13:51:30;;;;;;;17.10;12.37;;;;;;;;;;4977670;28;20596;-83
2021/03/17 13:53:55;;;;;;;20.00;14.47;;;;;;;;;;4960075;28;20293;-83
2021/03/17 13:56:21;;;;;;;26.43;16.17;;;;;;;;;;4976132;28;20186;-84
2021/03/17 13:58:49;;;;;;;22.27;15.07;;;;;;;;;;4958596;28;20209;-85
2021/03/17 14:01:14;;;;;;;19.07;14.13;;;;;;;;;;4974086;28;20248;-84
2021/03/17 14:03:43;;;;;;;25.97;18.70;;;;;;;;;;4976997;28;20639;-84
2021/03/17 14:06:08;;;;;;;34.57;24.37;;;;;;;;;;4976888;28;20317;-84
2021/03/17 14:08:34;;;;;;;23.50;15.10;;;;;;;;;;4976886;28;20277;-84
2021/03/17 14:10:59;;;;;;;19.53;13.80;;;;;;;;;;4976761;28;20219;-84
2021/03/17 14:13:24;;;;;;;23.83;14.73;;;;;;;;;;4976870;28;20174;-84
2021/03/17 14:15:52;;;;;;;23.20;15.53;;;;;;;;;;4976465;28;20621;-84
2021/03/17 14:18:18;;;;;;;28.17;19.73;;;;;;;;;;4976706;28;20217;-84
2021/03/17 14:20:43;;;;;;;25.03;16.73;;;;;;;;;;4976925;28;20649;-84